sensor_id;sensor_type;location;lat;lon;timestamp;pressure;altitude;pressure_sealevel;temperature;humidity
70407;BME280;57821;52.202;0.154;2023-08-24T00:00:19;101613.22;;;21.46;61.62
70407;BME280;57821;52.202;0.154;2023-08-24T00:03:07;101601.84;;;21.44;61.37
70407;BME280;57821;52.202;0.154;2023-08-24T00:05:54;101607.25;;;21.41;61.01
70407;BME280;57821;52.202;0.154;2023-08-24T00:08:41;101604.72;;;21.38;60.87
70407;BME280;57821;52.202;0.154;2023-08-24T00:11:28;101606.56;;;21.36;61.14
70407;BME280;57821;52.202;0.154;2023-08-24T00:14:15;101591.69;;;21.33;61.78
70407;BME280;57821;52.202;0.154;2023-08-24T00:17:02;101593.53;;;21.31;62.00
70407;BME280;57821;52.202;0.154;2023-08-24T00:19:49;101601.59;;;21.26;61.45
70407;BME280;57821;52.202;0.154;2023-08-24T00:22:37;101592.97;;;21.21;61.78
70407;BME280;57821;52.202;0.154;2023-08-24T00:25:24;101597.47;;;21.19;62.52
70407;BME280;57821;52.202;0.154;2023-08-24T00:28:11;101589.72;;;21.13;63.10
70407;BME280;57821;52.202;0.154;2023-08-24T00:30:58;101585.53;;;21.08;63.29
70407;BME280;57821;52.202;0.154;2023-08-24T00:33:46;101597.97;;;21.03;63.42
70407;BME280;57821;52.202;0.154;2023-08-24T00:36:33;101594.63;;;20.98;63.05
70407;BME280;57821;52.202;0.154;2023-08-24T00:39:20;101597.38;;;20.95;63.44
70407;BME280;57821;52.202;0.154;2023-08-24T00:42:06;101606.25;;;20.92;63.34
70407;BME280;57821;52.202;0.154;2023-08-24T00:44:53;101605.53;;;20.87;63.42
70407;BME280;57821;52.202;0.154;2023-08-24T00:47:43;101602.16;;;20.83;63.22
70407;BME280;57821;52.202;0.154;2023-08-24T00:50:31;101596.03;;;20.83;63.26
70407;BME280;57821;52.202;0.154;2023-08-24T00:53:17;101597.84;;;20.81;63.62
70407;BME280;57821;52.202;0.154;2023-08-24T00:56:04;101578.69;;;20.76;64.13
70407;BME280;57821;52.202;0.154;2023-08-24T00:58:53;101576.28;;;20.68;64.43
70407;BME280;57821;52.202;0.154;2023-08-24T01:01:41;101571.16;;;20.64;64.79
70407;BME280;57821;52.202;0.154;2023-08-24T01:04:31;101574.00;;;20.58;64.69
70407;BME280;57821;52.202;0.154;2023-08-24T01:07:18;101571.47;;;20.55;64.83
70407;BME280;57821;52.202;0.154;2023-08-24T01:10:06;101573.31;;;20.51;64.25
70407;BME280;57821;52.202;0.154;2023-08-24T01:13:07;101580.47;;;20.47;63.85
70407;BME280;57821;52.202;0.154;2023-08-24T01:16:08;101573.47;;;20.46;64.36
70407;BME280;57821;52.202;0.154;2023-08-24T01:19:01;101568.31;;;20.43;65.00
70407;BME280;57821;52.202;0.154;2023-08-24T01:21:48;101575.44;;;20.40;65.02
70407;BME280;57821;52.202;0.154;2023-08-24T01:24:40;101576.41;;;20.37;64.41
70407;BME280;57821;52.202;0.154;2023-08-24T01:27:31;101578.34;;;20.32;64.73
70407;BME280;57821;52.202;0.154;2023-08-24T01:30:19;101580.97;;;20.31;64.66
70407;BME280;57821;52.202;0.154;2023-08-24T01:33:06;101587.19;;;20.28;65.49
70407;BME280;57821;52.202;0.154;2023-08-24T01:35:53;101583.84;;;20.23;65.52
70407;BME280;57821;52.202;0.154;2023-08-24T01:38:41;101588.34;;;20.20;64.93
70407;BME280;57821;52.202;0.154;2023-08-24T01:41:31;101580.56;;;20.15;64.90
70407;BME280;57821;52.202;0.154;2023-08-24T01:44:23;101575.28;;;20.15;64.88
70407;BME280;57821;52.202;0.154;2023-08-24T01:47:12;101565.72;;;20.13;64.46
70407;BME280;57821;52.202;0.154;2023-08-24T01:50:01;101559.66;;;20.10;64.93
70407;BME280;57821;52.202;0.154;2023-08-24T01:52:49;101564.97;;;20.09;64.83
70407;BME280;57821;52.202;0.154;2023-08-24T01:55:38;101561.53;;;20.07;65.47
70407;BME280;57821;52.202;0.154;2023-08-24T01:58:26;101553.78;;;20.02;65.34
70407;BME280;57821;52.202;0.154;2023-08-24T02:01:13;101546.81;;;20.00;64.83
70407;BME280;57821;52.202;0.154;2023-08-24T02:04:00;101547.72;;;19.99;65.82
70407;BME280;57821;52.202;0.154;2023-08-24T02:06:47;101550.41;;;19.97;65.24
70407;BME280;57821;52.202;0.154;2023-08-24T02:09:34;101533.84;;;19.94;64.90
70407;BME280;57821;52.202;0.154;2023-08-24T02:12:21;101537.38;;;19.93;65.10
70407;BME280;57821;52.202;0.154;2023-08-24T02:15:08;101530.44;;;19.90;64.90
70407;BME280;57821;52.202;0.154;2023-08-24T02:17:56;101529.66;;;19.87;64.52
70407;BME280;57821;52.202;0.154;2023-08-24T02:20:43;101512.22;;;19.84;65.21
70407;BME280;57821;52.202;0.154;2023-08-24T02:23:30;101506.97;;;19.83;65.10
70407;BME280;57821;52.202;0.154;2023-08-24T02:26:17;101509.72;;;19.80;65.81
70407;BME280;57821;52.202;0.154;2023-08-24T02:29:04;101503.66;;;19.76;66.51
70407;BME280;57821;52.202;0.154;2023-08-24T02:31:51;101496.75;;;19.74;66.11
70407;BME280;57821;52.202;0.154;2023-08-24T02:34:40;101483.69;;;19.69;67.10
70407;BME280;57821;52.202;0.154;2023-08-24T02:37:27;101485.56;;;19.65;66.26
70407;BME280;57821;52.202;0.154;2023-08-24T02:40:14;101488.25;;;19.64;66.02
70407;BME280;57821;52.202;0.154;2023-08-24T02:43:01;101476.94;;;19.62;66.27
70407;BME280;57821;52.202;0.154;2023-08-24T02:45:48;101477.78;;;19.62;66.79
70407;BME280;57821;52.202;0.154;2023-08-24T02:48:36;101463.78;;;19.62;67.10
70407;BME280;57821;52.202;0.154;2023-08-24T02:51:23;101462.00;;;19.62;67.42
70407;BME280;57821;52.202;0.154;2023-08-24T02:54:10;101461.06;;;19.63;67.49
70407;BME280;57821;52.202;0.154;2023-08-24T02:56:57;101465.44;;;19.64;67.87
70407;BME280;57821;52.202;0.154;2023-08-24T02:59:43;101457.53;;;19.64;68.14
70407;BME280;57821;52.202;0.154;2023-08-24T03:02:30;101459.28;;;19.65;68.59
70407;BME280;57821;52.202;0.154;2023-08-24T03:05:17;101466.34;;;19.63;67.87
70407;BME280;57821;52.202;0.154;2023-08-24T03:08:05;101461.03;;;19.65;68.14
70407;BME280;57821;52.202;0.154;2023-08-24T03:10:52;101468.06;;;19.64;67.90
70407;BME280;57821;52.202;0.154;2023-08-24T03:13:39;101475.06;;;19.65;67.71
70407;BME280;57821;52.202;0.154;2023-08-24T03:16:26;101478.59;;;19.64;67.80
70407;BME280;57821;52.202;0.154;2023-08-24T03:19:13;101477.69;;;19.65;68.56
70407;BME280;57821;52.202;0.154;2023-08-24T03:22:00;101468.06;;;19.64;69.25
70407;BME280;57821;52.202;0.154;2023-08-24T03:24:47;101467.19;;;19.64;69.32
70407;BME280;57821;52.202;0.154;2023-08-24T03:27:35;101461.06;;;19.63;68.66
70407;BME280;57821;52.202;0.154;2023-08-24T03:30:22;101461.16;;;19.62;69.00
70407;BME280;57821;52.202;0.154;2023-08-24T03:33:08;101440.13;;;19.60;68.74
70407;BME280;57821;52.202;0.154;2023-08-24T03:35:55;101436.69;;;19.58;68.64
70407;BME280;57821;52.202;0.154;2023-08-24T03:38:42;101437.69;;;19.54;69.17
70407;BME280;57821;52.202;0.154;2023-08-24T03:41:29;101442.13;;;19.52;69.23
70407;BME280;57821;52.202;0.154;2023-08-24T03:44:17;101453.63;;;19.50;69.47
70407;BME280;57821;52.202;0.154;2023-08-24T03:47:04;101453.72;;;19.45;69.81
70407;BME280;57821;52.202;0.154;2023-08-24T03:49:51;101433.75;;;19.38;70.01
70407;BME280;57821;52.202;0.154;2023-08-24T03:52:38;101431.19;;;19.35;71.07
70407;BME280;57821;52.202;0.154;2023-08-24T03:55:25;101418.22;;;19.29;70.66
70407;BME280;57821;52.202;0.154;2023-08-24T03:58:13;101404.38;;;19.24;70.80
70407;BME280;57821;52.202;0.154;2023-08-24T04:01:00;101408.00;;;19.20;70.77
70407;BME280;57821;52.202;0.154;2023-08-24T04:03:47;101406.38;;;19.16;71.06
70407;BME280;57821;52.202;0.154;2023-08-24T04:06:34;101400.38;;;19.11;72.10
70407;BME280;57821;52.202;0.154;2023-08-24T04:09:21;101404.00;;;19.07;72.14
70407;BME280;57821;52.202;0.154;2023-08-24T04:12:08;101396.28;;;19.01;71.97
70407;BME280;57821;52.202;0.154;2023-08-24T04:14:55;101405.16;;;18.97;72.07
70407;BME280;57821;52.202;0.154;2023-08-24T04:17:42;101407.00;;;18.93;72.66
70407;BME280;57821;52.202;0.154;2023-08-24T04:20:30;101406.19;;;18.91;72.91
70407;BME280;57821;52.202;0.154;2023-08-24T04:23:17;101400.97;;;18.90;73.25
70407;BME280;57821;52.202;0.154;2023-08-24T04:26:04;101391.34;;;18.90;73.07
70407;BME280;57821;52.202;0.154;2023-08-24T04:28:51;101398.34;;;18.90;74.04
70407;BME280;57821;52.202;0.154;2023-08-24T04:31:38;101395.75;;;18.88;74.64
70407;BME280;57821;52.202;0.154;2023-08-24T04:34:24;101398.44;;;18.86;74.27
70407;BME280;57821;52.202;0.154;2023-08-24T04:37:11;101394.97;;;18.86;74.49
70407;BME280;57821;52.202;0.154;2023-08-24T04:39:58;101398.53;;;18.83;74.71
70407;BME280;57821;52.202;0.154;2023-08-24T04:42:45;101398.53;;;18.83;74.11
70407;BME280;57821;52.202;0.154;2023-08-24T04:45:32;101389.81;;;18.81;74.11
70407;BME280;57821;52.202;0.154;2023-08-24T04:48:22;101390.66;;;18.82;74.42
70407;BME280;57821;52.202;0.154;2023-08-24T04:51:09;101377.59;;;18.80;74.48
70407;BME280;57821;52.202;0.154;2023-08-24T04:53:56;101368.00;;;18.79;74.03
70407;BME280;57821;52.202;0.154;2023-08-24T04:56:43;101375.91;;;18.78;74.59
70407;BME280;57821;52.202;0.154;2023-08-24T04:59:30;101391.63;;;18.79;74.71
70407;BME280;57821;52.202;0.154;2023-08-24T05:02:17;101389.00;;;18.79;74.00
70407;BME280;57821;52.202;0.154;2023-08-24T05:05:04;101386.38;;;18.79;74.32
70407;BME280;57821;52.202;0.154;2023-08-24T05:07:51;101381.16;;;18.78;74.32
70407;BME280;57821;52.202;0.154;2023-08-24T05:10:38;101379.41;;;18.78;74.40
70407;BME280;57821;52.202;0.154;2023-08-24T05:13:25;101365.38;;;18.79;74.30
70407;BME280;57821;52.202;0.154;2023-08-24T05:16:13;101344.34;;;18.79;74.22
70407;BME280;57821;52.202;0.154;2023-08-24T05:19:00;101332.81;;;18.85;74.00
70407;BME280;57821;52.202;0.154;2023-08-24T05:21:47;101324.81;;;18.88;74.31
70407;BME280;57821;52.202;0.154;2023-08-24T05:24:33;101330.03;;;18.90;74.87
70407;BME280;57821;52.202;0.154;2023-08-24T05:27:20;101324.78;;;18.90;74.59
70407;BME280;57821;52.202;0.154;2023-08-24T05:30:07;101337.03;;;18.91;75.23
70407;BME280;57821;52.202;0.154;2023-08-24T05:32:54;101338.81;;;18.88;75.77
70407;BME280;57821;52.202;0.154;2023-08-24T05:35:42;101336.16;;;18.90;75.84
70407;BME280;57821;52.202;0.154;2023-08-24T05:38:28;101327.38;;;18.91;75.85
70407;BME280;57821;52.202;0.154;2023-08-24T05:41:15;101329.03;;;18.94;75.89
70407;BME280;57821;52.202;0.154;2023-08-24T05:44:02;101329.00;;;18.95;75.84
70407;BME280;57821;52.202;0.154;2023-08-24T05:46:49;101343.81;;;18.98;76.51
70407;BME280;57821;52.202;0.154;2023-08-24T05:49:36;101342.00;;;19.00;76.66
70407;BME280;57821;52.202;0.154;2023-08-24T05:52:23;101345.50;;;19.00;76.37
70407;BME280;57821;52.202;0.154;2023-08-24T05:55:10;101335.81;;;19.02;76.29
70407;BME280;57821;52.202;0.154;2023-08-24T05:57:57;101338.28;;;19.07;76.47
70407;BME280;57821;52.202;0.154;2023-08-24T06:00:44;101338.22;;;19.10;75.82
70407;BME280;57821;52.202;0.154;2023-08-24T06:03:31;101328.47;;;19.13;76.57
70407;BME280;57821;52.202;0.154;2023-08-24T06:06:18;101316.06;;;19.17;76.94
70407;BME280;57821;52.202;0.154;2023-08-24T06:09:04;101308.09;;;19.20;76.72
70407;BME280;57821;52.202;0.154;2023-08-24T06:11:54;101325.50;;;19.24;77.06
70407;BME280;57821;52.202;0.154;2023-08-24T06:14:41;101346.47;;;19.27;76.56
70407;BME280;57821;52.202;0.154;2023-08-24T06:17:28;101362.94;;;19.32;77.01
70407;BME280;57821;52.202;0.154;2023-08-24T06:20:15;101352.25;;;19.38;76.22
70407;BME280;57821;52.202;0.154;2023-08-24T06:23:02;101340.63;;;19.45;77.02
70407;BME280;57821;52.202;0.154;2023-08-24T06:25:48;101337.81;;;19.51;77.32
70407;BME280;57821;52.202;0.154;2023-08-24T06:28:35;101324.47;;;19.57;76.78
70407;BME280;57821;52.202;0.154;2023-08-24T06:31:22;101300.59;;;19.63;76.52
70407;BME280;57821;52.202;0.154;2023-08-24T06:34:09;101300.47;;;19.68;76.40
70407;BME280;57821;52.202;0.154;2023-08-24T06:37:00;101323.03;;;19.75;77.02
70407;BME280;57821;52.202;0.154;2023-08-24T06:39:47;101330.69;;;19.83;76.43
70407;BME280;57821;52.202;0.154;2023-08-24T06:42:34;101336.59;;;19.89;76.05
70407;BME280;57821;52.202;0.154;2023-08-24T06:45:21;101347.78;;;19.96;75.98
70407;BME280;57821;52.202;0.154;2023-08-24T06:48:08;101344.09;;;20.01;75.08
70407;BME280;57821;52.202;0.154;2023-08-24T06:50:55;101340.41;;;20.07;74.93
70407;BME280;57821;52.202;0.154;2023-08-24T06:53:42;101340.19;;;20.13;74.81
70407;BME280;57821;52.202;0.154;2023-08-24T06:56:29;101333.84;;;20.19;74.57
70407;BME280;57821;52.202;0.154;2023-08-24T06:59:16;101338.97;;;20.23;74.37
70407;BME280;57821;52.202;0.154;2023-08-24T07:02:03;101338.75;;;20.29;74.18
70407;BME280;57821;52.202;0.154;2023-08-24T07:04:49;101319.19;;;20.38;73.94
70407;BME280;57821;52.202;0.154;2023-08-24T07:07:36;101303.16;;;20.44;73.62
70407;BME280;57821;52.202;0.154;2023-08-24T07:10:23;101285.34;;;20.50;73.68
70407;BME280;57821;52.202;0.154;2023-08-24T07:13:10;101293.09;;;20.55;73.36
70407;BME280;57821;52.202;0.154;2023-08-24T07:15:57;101299.91;;;20.61;72.88
70407;BME280;57821;52.202;0.154;2023-08-24T07:18:44;101289.19;;;20.65;73.26
70407;BME280;57821;52.202;0.154;2023-08-24T07:21:31;101289.78;;;20.73;73.14
70407;BME280;57821;52.202;0.154;2023-08-24T07:24:17;101280.84;;;20.77;72.48
70407;BME280;57821;52.202;0.154;2023-08-24T07:27:11;101284.22;;;20.81;72.62
70407;BME280;57821;52.202;0.154;2023-08-24T07:29:57;101273.50;;;20.85;72.77
70407;BME280;57821;52.202;0.154;2023-08-24T07:32:44;101279.53;;;20.89;72.33
70407;BME280;57821;52.202;0.154;2023-08-24T07:35:31;101267.97;;;20.91;72.86
70407;BME280;57821;52.202;0.154;2023-08-24T07:38:18;101267.84;;;20.96;71.93
70407;BME280;57821;52.202;0.154;2023-08-24T07:41:05;101260.66;;;21.00;71.71
70407;BME280;57821;52.202;0.154;2023-08-24T07:43:52;101258.75;;;21.03;71.42
70407;BME280;57821;52.202;0.154;2023-08-24T07:46:39;101274.50;;;21.05;72.04
70407;BME280;57821;52.202;0.154;2023-08-24T07:49:26;101273.53;;;21.07;71.60
70407;BME280;57821;52.202;0.154;2023-08-24T07:52:13;101268.13;;;21.10;71.34
70407;BME280;57821;52.202;0.154;2023-08-24T07:55:00;101267.09;;;21.14;71.25
70407;BME280;57821;52.202;0.154;2023-08-24T07:57:46;101266.88;;;21.20;71.41
70407;BME280;57821;52.202;0.154;2023-08-24T08:00:34;101262.31;;;21.25;71.36
70407;BME280;57821;52.202;0.154;2023-08-24T08:03:21;101242.66;;;21.33;70.97
70407;BME280;57821;52.202;0.154;2023-08-24T08:06:08;101238.81;;;21.41;71.14
70407;BME280;57821;52.202;0.154;2023-08-24T08:08:55;101255.09;;;21.51;71.10
70407;BME280;57821;52.202;0.154;2023-08-24T08:11:42;101267.94;;;21.60;71.28
70407;BME280;57821;52.202;0.154;2023-08-24T08:14:29;101256.00;;;21.71;70.71
70407;BME280;57821;52.202;0.154;2023-08-24T08:17:16;101257.28;;;21.83;70.86
70407;BME280;57821;52.202;0.154;2023-08-24T08:20:04;101248.88;;;21.95;70.40
70407;BME280;57821;52.202;0.154;2023-08-24T08:22:51;101243.03;;;22.07;70.37
70407;BME280;57821;52.202;0.154;2023-08-24T08:25:38;101243.34;;;22.20;70.00
70407;BME280;57821;52.202;0.154;2023-08-24T08:28:25;101219.97;;;22.31;69.63
70407;BME280;57821;52.202;0.154;2023-08-24T08:31:12;101217.00;;;22.39;69.37
70407;BME280;57821;52.202;0.154;2023-08-24T08:33:59;101203.44;;;22.46;68.91
70407;BME280;57821;52.202;0.154;2023-08-24T08:36:46;101205.59;;;22.57;69.22
70407;BME280;57821;52.202;0.154;2023-08-24T08:39:33;101213.88;;;22.68;69.02
70407;BME280;57821;52.202;0.154;2023-08-24T08:42:20;101234.47;;;22.80;69.02
70407;BME280;57821;52.202;0.154;2023-08-24T08:45:09;101192.53;;;22.91;68.52
70407;BME280;57821;52.202;0.154;2023-08-24T08:47:58;101180.56;;;23.02;68.10
70407;BME280;57821;52.202;0.154;2023-08-24T08:50:48;101205.78;;;23.09;68.33
70407;BME280;57821;52.202;0.154;2023-08-24T08:53:36;101205.34;;;23.18;67.40
70407;BME280;57821;52.202;0.154;2023-08-24T08:56:23;101206.84;;;23.23;67.52
70407;BME280;57821;52.202;0.154;2023-08-24T08:59:13;101191.66;;;23.27;67.09
70407;BME280;57821;52.202;0.154;2023-08-24T09:02:03;101166.63;;;23.34;67.16
70407;BME280;57821;52.202;0.154;2023-08-24T09:04:51;101153.16;;;23.39;67.11
70407;BME280;57821;52.202;0.154;2023-08-24T09:07:41;101153.72;;;23.45;66.63
70407;BME280;57821;52.202;0.154;2023-08-24T09:10:28;101158.88;;;23.48;66.24
70407;BME280;57821;52.202;0.154;2023-08-24T09:13:15;101174.59;;;23.51;66.42
70407;BME280;57821;52.202;0.154;2023-08-24T09:16:06;101177.88;;;23.56;66.65
70407;BME280;57821;52.202;0.154;2023-08-24T09:18:53;101198.72;;;23.62;66.46
70407;BME280;57821;52.202;0.154;2023-08-24T09:21:40;101195.84;;;23.67;66.02
70407;BME280;57821;52.202;0.154;2023-08-24T09:24:34;101189.56;;;23.69;66.43
70407;BME280;57821;52.202;0.154;2023-08-24T09:27:21;101178.78;;;23.72;65.99
70407;BME280;57821;52.202;0.154;2023-08-24T09:30:09;101120.47;;;23.74;65.36
70407;BME280;57821;52.202;0.154;2023-08-24T09:33:01;101146.88;;;23.76;66.03
70407;BME280;57821;52.202;0.154;2023-08-24T09:35:54;101162.66;;;23.77;65.34
70407;BME280;57821;52.202;0.154;2023-08-24T09:38:47;101158.41;;;23.74;65.36
70407;BME280;57821;52.202;0.154;2023-08-24T09:41:41;101156.59;;;23.75;64.95
70407;BME280;57821;52.202;0.154;2023-08-24T09:44:28;101146.88;;;23.76;65.15
70407;BME280;57821;52.202;0.154;2023-08-24T09:47:15;101155.44;;;23.81;65.40
70407;BME280;57821;52.202;0.154;2023-08-24T09:50:05;101149.81;;;23.87;64.75
70407;BME280;57821;52.202;0.154;2023-08-24T09:52:53;101151.53;;;23.88;63.86
70407;BME280;57821;52.202;0.154;2023-08-24T09:55:42;101148.78;;;23.89;63.65
70407;BME280;57821;52.202;0.154;2023-08-24T09:58:31;101141.69;;;23.90;64.18
70407;BME280;57821;52.202;0.154;2023-08-24T10:01:19;101149.31;;;23.96;66.01
70407;BME280;57821;52.202;0.154;2023-08-24T10:04:08;101137.56;;;24.17;65.61
70407;BME280;57821;52.202;0.154;2023-08-24T10:06:59;101138.84;;;24.43;64.53
70407;BME280;57821;52.202;0.154;2023-08-24T10:10:07;101123.38;;;24.67;63.84
70407;BME280;57821;52.202;0.154;2023-08-24T10:13:00;101106.94;;;24.91;63.91
70407;BME280;57821;52.202;0.154;2023-08-24T10:15:52;101105.75;;;25.27;62.10
70407;BME280;57821;52.202;0.154;2023-08-24T10:18:40;101105.19;;;25.66;63.02
70407;BME280;57821;52.202;0.154;2023-08-24T10:21:28;101100.53;;;26.12;59.44
70407;BME280;57821;52.202;0.154;2023-08-24T10:24:17;101099.78;;;26.65;57.46
70407;BME280;57821;52.202;0.154;2023-08-24T10:27:05;101104.00;;;27.09;56.05
70407;BME280;57821;52.202;0.154;2023-08-24T10:29:53;101111.84;;;27.50;55.20
70407;BME280;57821;52.202;0.154;2023-08-24T10:32:41;101106.22;;;27.92;52.98
70407;BME280;57821;52.202;0.154;2023-08-24T10:35:29;101122.09;;;28.32;51.94
70407;BME280;57821;52.202;0.154;2023-08-24T10:38:29;101123.13;;;28.66;49.23
70407;BME280;57821;52.202;0.154;2023-08-24T10:41:16;101117.97;;;28.88;47.42
70407;BME280;57821;52.202;0.154;2023-08-24T10:44:06;101120.38;;;29.15;46.86
70407;BME280;57821;52.202;0.154;2023-08-24T10:50:05;101132.53;;;29.54;45.39
70407;BME280;57821;52.202;0.154;2023-08-24T10:52:52;101129.53;;;29.58;43.78
70407;BME280;57821;52.202;0.154;2023-08-24T10:55:39;101134.34;;;29.53;42.79
70407;BME280;57821;52.202;0.154;2023-08-24T10:58:26;101135.81;;;29.46;42.60
70407;BME280;57821;52.202;0.154;2023-08-24T11:01:17;101144.88;;;29.32;42.82
70407;BME280;57821;52.202;0.154;2023-08-24T11:04:05;101138.25;;;29.25;43.47
70407;BME280;57821;52.202;0.154;2023-08-24T11:06:53;101145.31;;;29.26;42.12
70407;BME280;57821;52.202;0.154;2023-08-24T11:09:49;101141.28;;;29.21;42.76
70407;BME280;57821;52.202;0.154;2023-08-24T11:15:50;101114.34;;;29.24;42.78
70407;BME280;57821;52.202;0.154;2023-08-24T11:18:39;101107.25;;;29.35;42.13
70407;BME280;57821;52.202;0.154;2023-08-24T11:21:26;101108.28;;;29.57;40.54
70407;BME280;57821;52.202;0.154;2023-08-24T11:24:15;101114.59;;;29.78;40.05
70407;BME280;57821;52.202;0.154;2023-08-24T11:27:02;101115.50;;;30.01;39.39
70407;BME280;57821;52.202;0.154;2023-08-24T11:30:08;101108.56;;;30.32;38.15
70407;BME280;57821;52.202;0.154;2023-08-24T11:32:55;101103.19;;;30.54;38.40
70407;BME280;57821;52.202;0.154;2023-08-24T11:35:45;101107.84;;;30.84;37.38
70407;BME280;57821;52.202;0.154;2023-08-24T11:38:39;101098.03;;;31.05;36.61
70407;BME280;57821;52.202;0.154;2023-08-24T11:41:26;101098.53;;;31.31;37.62
70407;BME280;57821;52.202;0.154;2023-08-24T11:44:13;101086.25;;;31.49;36.00
70407;BME280;57821;52.202;0.154;2023-08-24T11:47:15;101085.91;;;31.63;34.97
70407;BME280;57821;52.202;0.154;2023-08-24T11:50:02;101070.03;;;31.71;34.34
70407;BME280;57821;52.202;0.154;2023-08-24T11:52:49;101077.41;;;31.79;34.43
70407;BME280;57821;52.202;0.154;2023-08-24T11:55:39;101077.72;;;31.86;34.65
70407;BME280;57821;52.202;0.154;2023-08-24T11:58:41;101080.31;;;31.97;34.46
70407;BME280;57821;52.202;0.154;2023-08-24T12:01:28;101071.88;;;32.11;33.24
70407;BME280;57821;52.202;0.154;2023-08-24T12:04:15;101088.94;;;32.10;33.41
70407;BME280;57821;52.202;0.154;2023-08-24T12:07:11;101079.28;;;31.98;33.31
70407;BME280;57821;52.202;0.154;2023-08-24T12:10:01;101061.03;;;31.82;33.29
70407;BME280;57821;52.202;0.154;2023-08-24T12:12:48;101054.59;;;31.64;34.70
70407;BME280;57821;52.202;0.154;2023-08-24T12:15:36;101059.44;;;31.49;35.10
70407;BME280;57821;52.202;0.154;2023-08-24T12:18:23;101050.03;;;31.34;34.29
70407;BME280;57821;52.202;0.154;2023-08-24T12:21:11;101054.16;;;31.17;33.75
70407;BME280;57821;52.202;0.154;2023-08-24T12:24:07;101041.72;;;30.95;34.66
70407;BME280;57821;52.202;0.154;2023-08-24T12:26:57;101029.63;;;30.80;34.00
70407;BME280;57821;52.202;0.154;2023-08-24T12:29:45;101024.34;;;30.58;34.30
70407;BME280;57821;52.202;0.154;2023-08-24T12:32:45;101028.03;;;30.46;35.14
70407;BME280;57821;52.202;0.154;2023-08-24T12:35:32;101027.09;;;30.36;35.60
70407;BME280;57821;52.202;0.154;2023-08-24T12:38:19;101021.75;;;30.25;36.11
70407;BME280;57821;52.202;0.154;2023-08-24T12:41:06;101023.03;;;30.09;36.02
70407;BME280;57821;52.202;0.154;2023-08-24T12:43:54;101024.50;;;30.02;36.29
70407;BME280;57821;52.202;0.154;2023-08-24T12:46:41;101026.22;;;29.92;37.07
70407;BME280;57821;52.202;0.154;2023-08-24T12:49:28;101027.16;;;29.80;37.57
70407;BME280;57821;52.202;0.154;2023-08-24T12:52:15;101022.53;;;29.71;37.67
70407;BME280;57821;52.202;0.154;2023-08-24T12:55:02;101016.47;;;29.58;38.35
70407;BME280;57821;52.202;0.154;2023-08-24T12:57:49;101010.88;;;29.50;38.14
70407;BME280;57821;52.202;0.154;2023-08-24T13:00:36;101008.94;;;29.41;38.68
70407;BME280;57821;52.202;0.154;2023-08-24T13:03:23;100991.69;;;29.33;38.85
70407;BME280;57821;52.202;0.154;2023-08-24T13:06:10;100987.66;;;29.28;38.52
70407;BME280;57821;52.202;0.154;2023-08-24T13:09:10;100982.41;;;29.26;38.39
70407;BME280;57821;52.202;0.154;2023-08-24T13:11:57;100974.66;;;29.23;37.57
70407;BME280;57821;52.202;0.154;2023-08-24T13:14:43;100968.09;;;29.16;37.84
70407;BME280;57821;52.202;0.154;2023-08-24T13:17:30;100966.63;;;29.12;37.54
70407;BME280;57821;52.202;0.154;2023-08-24T13:20:17;100970.50;;;29.08;37.85
70407;BME280;57821;52.202;0.154;2023-08-24T13:23:04;100963.22;;;29.10;38.74
70407;BME280;57821;52.202;0.154;2023-08-24T13:25:51;100966.38;;;29.15;39.00
70407;BME280;57821;52.202;0.154;2023-08-24T13:28:38;100953.31;;;29.23;38.21
70407;BME280;57821;52.202;0.154;2023-08-24T13:31:25;100952.59;;;29.32;38.22
70407;BME280;57821;52.202;0.154;2023-08-24T13:34:12;100956.59;;;29.38;37.74
70407;BME280;57821;52.202;0.154;2023-08-24T13:36:59;100946.50;;;29.42;37.89
70407;BME280;57821;52.202;0.154;2023-08-24T13:39:46;100943.13;;;29.51;38.34
70407;BME280;57821;52.202;0.154;2023-08-24T13:42:33;100932.66;;;29.59;37.50
70407;BME280;57821;52.202;0.154;2023-08-24T13:45:20;100932.66;;;29.59;37.72
70407;BME280;57821;52.202;0.154;2023-08-24T13:48:07;100924.66;;;29.59;38.44
70407;BME280;57821;52.202;0.154;2023-08-24T13:50:54;100925.75;;;29.67;38.46
70407;BME280;57821;52.202;0.154;2023-08-24T13:53:41;100915.53;;;29.72;37.99
70407;BME280;57821;52.202;0.154;2023-08-24T13:56:28;100911.78;;;29.75;38.11
70407;BME280;57821;52.202;0.154;2023-08-24T13:59:15;100909.19;;;29.85;37.55
70407;BME280;57821;52.202;0.154;2023-08-24T14:02:02;100904.31;;;29.90;37.86
70407;BME280;57821;52.202;0.154;2023-08-24T14:04:49;100894.72;;;29.98;38.11
70407;BME280;57821;52.202;0.154;2023-08-24T14:07:36;100895.78;;;30.07;37.85
70407;BME280;57821;52.202;0.154;2023-08-24T14:10:23;100905.34;;;30.20;37.51
70407;BME280;57821;52.202;0.154;2023-08-24T14:13:10;100908.19;;;30.40;36.81
70407;BME280;57821;52.202;0.154;2023-08-24T14:15:56;100904.75;;;30.49;36.38
70407;BME280;57821;52.202;0.154;2023-08-24T14:18:45;100899.00;;;30.53;36.96
70407;BME280;57821;52.202;0.154;2023-08-24T14:21:32;100900.69;;;30.54;36.42
70407;BME280;57821;52.202;0.154;2023-08-24T14:24:22;100900.81;;;30.53;37.15
70407;BME280;57821;52.202;0.154;2023-08-24T14:27:11;100903.78;;;30.50;36.19
70407;BME280;57821;52.202;0.154;2023-08-24T14:29:57;100912.78;;;30.49;36.71
70407;BME280;57821;52.202;0.154;2023-08-24T14:32:44;100907.41;;;30.49;36.43
70407;BME280;57821;52.202;0.154;2023-08-24T14:35:31;100912.69;;;30.39;36.77
70407;BME280;57821;52.202;0.154;2023-08-24T14:38:20;100909.19;;;30.28;36.96
70407;BME280;57821;52.202;0.154;2023-08-24T14:41:11;100911.41;;;30.23;37.35
70407;BME280;57821;52.202;0.154;2023-08-24T14:43:58;100907.09;;;30.10;37.35